createdAt,value
2018-11-02T00:01:00.134Z,7.40
2018-11-02T00:03:29.018Z,7.40
2018-11-02T00:05:57.925Z,7.30
2018-11-02T00:08:26.814Z,7.20
2018-11-02T00:10:55.808Z,7.20
2018-11-02T00:13:24.709Z,7.10
2018-11-02T00:15:53.525Z,7.20
2018-11-02T00:18:22.373Z,7.20
2018-11-02T00:20:51.394Z,7.30
2018-11-02T00:23:20.281Z,7.40
2018-11-02T00:25:49.133Z,7.40
2018-11-02T00:28:18.049Z,7.40
2018-11-02T00:30:47.880Z,7.30
2018-11-02T00:33:16.725Z,7.40
2018-11-02T00:35:45.467Z,7.30
2018-11-02T00:38:14.296Z,7.20
2018-11-02T00:40:43.172Z,7.10
2018-11-02T00:43:12.031Z,7.00
2018-11-02T00:45:40.978Z,7.00
2018-11-02T00:48:09.846Z,7.10
2018-11-02T00:50:38.627Z,7.10
2018-11-02T00:53:07.457Z,7.10
2018-11-02T00:55:36.197Z,6.90
2018-11-02T00:58:05.179Z,6.80
2018-11-02T01:00:33.973Z,6.60
2018-11-02T01:03:02.767Z,6.60
2018-11-02T01:05:31.594Z,6.40
2018-11-02T01:08:00.364Z,6.20
2018-11-02T01:10:28.977Z,6.30
2018-11-02T01:12:57.816Z,6.20
2018-11-02T01:15:26.559Z,6.20
2018-11-02T01:17:56.250Z,6.10
2018-11-02T01:20:25.139Z,6.20
2018-11-02T01:22:53.914Z,6.20
2018-11-02T01:25:22.669Z,6.20
2018-11-02T01:27:51.405Z,6.20
2018-11-02T01:30:20.059Z,6.30
2018-11-02T01:32:48.948Z,6.20
2018-11-02T01:35:17.871Z,6.30
2018-11-02T01:37:46.534Z,6.40
2018-11-02T01:40:15.385Z,6.30
2018-11-02T01:42:44.232Z,6.40
2018-11-02T01:45:13.014Z,6.30
2018-11-02T01:47:41.869Z,6.30
2018-11-02T01:50:10.571Z,6.20
2018-11-02T01:52:39.371Z,6.10
2018-11-02T01:55:08.616Z,6.10
2018-11-02T01:57:37.682Z,6.00
2018-11-02T02:00:07.855Z,6.10
2018-11-02T02:02:36.677Z,6.20
2018-11-02T02:05:08.733Z,6.10
2018-11-02T02:07:37.514Z,6.00
2018-11-02T02:10:06.308Z,6.00
2018-11-02T02:12:35.072Z,6.10
2018-11-02T02:15:04.014Z,6.00
2018-11-02T02:17:32.802Z,6.00
2018-11-02T02:20:01.518Z,6.00
2018-11-02T02:22:30.381Z,5.90
2018-11-02T02:24:59.102Z,5.80
2018-11-02T02:27:27.906Z,5.90
2018-11-02T02:29:56.610Z,5.80
2018-11-02T02:32:25.386Z,5.90
2018-11-02T02:34:54.057Z,6.00
2018-11-02T02:37:22.809Z,6.10
2018-11-02T02:39:51.480Z,6.10
2018-11-02T02:42:20.232Z,6.10
2018-11-02T02:44:48.811Z,6.10
2018-11-02T02:47:17.515Z,6.00
2018-11-02T02:49:46.232Z,5.90
2018-11-02T02:52:14.973Z,5.80
2018-11-02T02:54:44.398Z,5.80
2018-11-02T02:57:13.131Z,5.90
2018-11-02T02:59:41.916Z,5.90
2018-11-02T03:02:10.536Z,5.80
2018-11-02T03:04:39.235Z,5.80
2018-11-02T03:07:07.928Z,5.90
2018-11-02T03:09:36.612Z,5.80
2018-11-02T03:12:05.713Z,5.70
2018-11-02T03:14:35.408Z,5.80
2018-11-02T03:17:04.113Z,5.90
2018-11-02T03:19:32.891Z,5.90
2018-11-02T03:22:01.641Z,5.80
2018-11-02T03:24:30.441Z,5.80
2018-11-02T03:26:59.252Z,5.70
2018-11-02T03:29:27.929Z,5.80
2018-11-02T03:31:56.710Z,5.70
2018-11-02T03:34:25.331Z,5.80
2018-11-02T03:36:54.124Z,5.90
2018-11-02T03:39:22.889Z,6.00
2018-11-02T03:41:51.678Z,6.00
2018-11-02T03:44:20.411Z,6.00
2018-11-02T03:46:49.032Z,6.00
2018-11-02T03:49:17.768Z,6.00
2018-11-02T03:51:46.526Z,6.00
2018-11-02T03:54:15.157Z,5.90
2018-11-02T03:56:43.966Z,5.90
2018-11-02T03:59:12.795Z,5.80
2018-11-02T04:01:41.501Z,5.80
2018-11-02T04:04:10.226Z,5.80
2018-11-02T04:06:38.913Z,5.80
2018-11-02T04:09:08.188Z,5.70
2018-11-02T04:11:37.024Z,5.70
2018-11-02T04:14:06.031Z,5.60
2018-11-02T04:16:34.791Z,5.60
2018-11-02T04:19:03.433Z,5.50
2018-11-02T04:21:36.481Z,5.40
2018-11-02T04:24:05.349Z,5.40
2018-11-02T04:26:34.039Z,5.30
2018-11-02T04:29:02.806Z,5.20
2018-11-02T04:31:33.658Z,5.40
2018-11-02T04:34:02.548Z,5.30
2018-11-02T04:36:31.260Z,5.30
2018-11-02T04:38:59.962Z,5.40
2018-11-02T04:41:28.721Z,5.50
2018-11-02T04:43:57.688Z,5.40
2018-11-02T04:46:26.641Z,5.40
2018-11-02T04:48:55.407Z,5.50
2018-11-02T04:51:24.201Z,5.50
2018-11-02T04:53:54.987Z,5.50
2018-11-02T04:56:24.998Z,5.60
2018-11-02T04:58:53.691Z,5.50
2018-11-02T05:01:23.023Z,5.50
2018-11-02T05:03:52.197Z,5.40
2018-11-02T05:06:21.272Z,5.30
2018-11-02T05:08:49.898Z,5.20
2018-11-02T05:11:18.691Z,5.30
2018-11-02T05:13:47.423Z,5.30
2018-11-02T05:16:16.144Z,5.40
2018-11-02T05:18:44.839Z,5.40
2018-11-02T05:21:13.647Z,5.40
2018-11-02T05:23:42.426Z,5.40
2018-11-02T05:26:11.047Z,5.30
2018-11-02T05:28:39.819Z,5.20
2018-11-02T05:31:08.510Z,5.20
2018-11-02T05:33:37.330Z,5.20
2018-11-02T05:36:06.737Z,5.00
2018-11-02T05:38:35.523Z,5.00
2018-11-02T05:41:05.556Z,5.00
2018-11-02T05:43:34.964Z,4.90
2018-11-02T05:46:03.872Z,4.80
2018-11-02T05:48:32.709Z,4.70
2018-11-02T05:51:01.527Z,4.60
2018-11-02T05:53:30.607Z,4.50
2018-11-02T05:55:59.425Z,4.50
2018-11-02T05:58:28.262Z,4.40
2018-11-02T06:00:57.108Z,4.30
2018-11-02T06:03:25.932Z,4.20
2018-11-02T06:05:54.589Z,4.20
2018-11-02T06:08:23.343Z,4.20
2018-11-02T06:10:52.181Z,4.20
2018-11-02T06:13:20.974Z,4.10
2018-11-02T06:15:49.796Z,4.10
2018-11-02T06:18:18.619Z,4.00
2018-11-02T06:20:47.432Z,3.90
2018-11-02T06:23:16.245Z,3.90
2018-11-02T06:25:45.050Z,3.90
2018-11-02T06:28:14.046Z,3.80
2018-11-02T06:30:43.064Z,3.80
2018-11-02T06:33:12.006Z,3.90
2018-11-02T06:35:41.043Z,3.90
2018-11-02T06:38:10.684Z,3.80
2018-11-02T06:40:39.546Z,3.80
2018-11-02T06:43:09.229Z,4.00
2018-11-02T06:45:38.198Z,3.90
2018-11-02T06:48:07.056Z,4.00
2018-11-02T06:50:36.177Z,4.10
2018-11-02T06:53:05.292Z,4.10
2018-11-02T06:55:35.262Z,4.40
2018-11-02T06:58:04.208Z,4.50
2018-11-02T07:00:33.569Z,4.90
2018-11-02T07:03:02.230Z,5.10
2018-11-02T07:05:31.065Z,5.30
2018-11-02T07:08:00.120Z,5.50
2018-11-02T07:10:30.824Z,5.50
2018-11-02T07:12:59.851Z,5.80
2018-11-02T07:15:28.830Z,5.80
2018-11-02T07:17:57.789Z,5.80
2018-11-02T07:20:26.744Z,6.00
2018-11-02T07:22:55.624Z,6.10
2018-11-02T07:25:24.675Z,6.20
2018-11-02T07:27:53.596Z,6.30
2018-11-02T07:30:22.483Z,6.30
2018-11-02T07:32:51.477Z,6.40
2018-11-02T07:35:22.931Z,6.40
2018-11-02T07:37:52.058Z,6.50
2018-11-02T07:40:20.989Z,6.60
2018-11-02T07:42:50.712Z,6.60
2018-11-02T07:45:19.852Z,6.70
2018-11-02T07:47:48.994Z,6.80
2018-11-02T07:50:18.204Z,6.90
2018-11-02T07:52:47.423Z,7.00
2018-11-02T07:55:16.875Z,7.10
2018-11-02T07:57:46.029Z,7.10
2018-11-02T08:00:16.810Z,7.20
2018-11-02T08:02:46.862Z,7.40
2018-11-02T08:05:17.324Z,7.50
2018-11-02T08:07:46.609Z,7.60
2018-11-02T08:10:15.973Z,7.50
2018-11-02T08:12:45.014Z,7.60
2018-11-02T08:15:14.690Z,7.70
2018-11-02T08:17:43.878Z,7.80
2018-11-02T08:20:13.767Z,8.00
2018-11-02T08:22:43.465Z,8.20
2018-11-02T08:25:13.124Z,8.30
2018-11-02T08:27:42.546Z,8.40
2018-11-02T08:30:12.306Z,8.50
2018-11-02T08:32:41.565Z,8.60
2018-11-02T08:35:12.405Z,8.80
2018-11-02T08:37:41.746Z,9.00
2018-11-02T08:40:13.264Z,9.10
2018-11-02T08:42:42.758Z,9.40
2018-11-02T08:45:12.318Z,9.50
2018-11-02T08:47:41.886Z,9.60
2018-11-02T08:50:11.395Z,9.50
2018-11-02T08:52:40.329Z,9.50
2018-11-02T08:55:09.589Z,9.30
2018-11-02T08:57:39.187Z,9.30
2018-11-02T09:00:10.192Z,9.40
2018-11-02T09:02:39.279Z,9.60
2018-11-02T09:05:08.700Z,9.80
2018-11-02T09:07:37.981Z,9.80
2018-11-02T09:10:09.629Z,10.00
2018-11-02T09:12:38.962Z,10.20
2018-11-02T09:15:08.133Z,10.40
2018-11-02T09:17:37.307Z,10.40
2018-11-02T09:20:08.345Z,10.70
2018-11-02T09:22:38.839Z,10.80
2018-11-02T09:25:09.707Z,11.00
2018-11-02T09:27:40.927Z,11.20
2018-11-02T09:30:13.803Z,11.20
2018-11-02T09:32:43.965Z,11.30
2018-11-02T09:35:14.541Z,11.20
2018-11-02T09:37:44.280Z,11.10
2018-11-02T09:40:13.694Z,11.00
2018-11-02T09:42:45.663Z,11.10
2018-11-02T09:45:15.073Z,11.10
2018-11-02T09:47:49.759Z,11.10
2018-11-02T09:50:19.897Z,11.10
2018-11-02T09:52:49.632Z,11.20
2018-11-02T09:55:18.707Z,11.20
2018-11-02T09:57:47.659Z,11.20
2018-11-02T10:00:17.056Z,11.30
2018-11-02T10:02:47.652Z,11.50
2018-11-02T10:05:17.472Z,11.50
2018-11-02T10:07:47.539Z,11.50
2018-11-02T10:10:17.157Z,11.60
2018-11-02T10:12:46.204Z,11.80
2018-11-02T10:15:15.981Z,11.80
2018-11-02T10:17:45.101Z,11.90
2018-11-02T10:20:14.876Z,12.10
2018-11-02T10:22:43.877Z,12.40
2018-11-02T10:25:17.615Z,12.40
2018-11-02T10:27:50.554Z,12.30
2018-11-02T10:30:23.345Z,12.60
2018-11-02T10:33:01.103Z,12.70
2018-11-02T10:35:33.083Z,12.60
2018-11-02T10:38:05.060Z,12.60
2018-11-02T10:40:38.276Z,12.70
2018-11-02T10:43:16.633Z,12.80
2018-11-02T10:45:48.006Z,13.00
2018-11-02T10:48:20.058Z,12.80
2018-11-02T10:50:52.136Z,12.70
2018-11-02T10:53:21.987Z,12.80
2018-11-02T10:55:52.594Z,12.80
2018-11-02T10:58:21.990Z,12.80
2018-11-02T11:00:59.335Z,12.80
2018-11-02T11:03:30.517Z,12.90
2018-11-02T11:05:59.409Z,12.90
2018-11-02T11:08:29.037Z,13.00
2018-11-02T11:11:02.099Z,12.90
2018-11-02T11:13:34.066Z,12.80
2018-11-02T11:16:03.572Z,12.70
2018-11-02T11:18:37.418Z,12.70
2018-11-02T11:21:09.154Z,12.80
2018-11-02T11:23:42.288Z,12.80
2018-11-02T11:26:12.586Z,12.70
2018-11-02T11:28:41.929Z,12.70
2018-11-02T11:31:13.673Z,12.70
2018-11-02T11:33:43.922Z,12.70
2018-11-02T11:36:14.665Z,12.70
2018-11-02T11:38:45.772Z,12.80
2018-11-02T11:41:16.688Z,12.90
2018-11-02T11:43:48.747Z,12.80
2018-11-02T11:46:19.033Z,12.80
2018-11-02T11:49:01.072Z,12.90
2018-11-02T11:51:32.209Z,13.20
2018-11-02T11:54:03.655Z,13.40
2018-11-02T11:56:34.319Z,13.50
2018-11-02T11:59:04.364Z,13.30
2018-11-02T12:01:38.990Z,13.50
2018-11-02T12:04:08.025Z,13.70
2018-11-02T12:06:39.068Z,13.80
2018-11-02T12:09:09.223Z,13.80
2018-11-02T12:11:40.386Z,13.50
2018-11-02T12:14:11.630Z,13.50
2018-11-02T12:16:42.367Z,13.40
2018-11-02T12:19:15.899Z,13.10
2018-11-02T12:21:48.897Z,13.10
2018-11-02T12:24:19.980Z,13.20
2018-11-02T12:26:55.171Z,13.20
2018-11-02T12:29:27.959Z,13.10
2018-11-02T12:32:05.904Z,13.00
2018-11-02T12:34:37.756Z,13.10
2018-11-02T12:37:12.497Z,13.20
2018-11-02T12:39:44.786Z,13.10
2018-11-02T12:42:15.935Z,13.10
2018-11-02T12:44:50.036Z,13.10
2018-11-02T12:47:24.526Z,13.00
2018-11-02T12:49:57.869Z,13.10
2018-11-02T12:52:30.541Z,13.00
2018-11-02T12:55:02.155Z,13.00
2018-11-02T12:57:37.739Z,12.90
2018-11-02T13:00:10.936Z,12.90
2018-11-02T13:02:44.542Z,12.90
2018-11-02T13:05:17.804Z,12.80
2018-11-02T13:07:49.631Z,12.70
2018-11-02T13:10:23.182Z,12.60
2018-11-02T13:12:53.189Z,12.70
2018-11-02T13:15:27.527Z,12.70
2018-11-02T13:17:58.207Z,12.80
2018-11-02T13:20:27.694Z,12.80
2018-11-02T13:22:59.604Z,12.80
2018-11-02T13:25:35.092Z,12.80
2018-11-02T13:28:08.413Z,12.80
2018-11-02T13:30:40.006Z,12.80
2018-11-02T13:33:17.622Z,12.70
2018-11-02T13:35:50.397Z,12.70
2018-11-02T13:38:32.060Z,12.60
2018-11-02T13:41:01.753Z,12.60
2018-11-02T13:43:38.169Z,12.60
2018-11-02T13:46:18.530Z,12.60
2018-11-02T13:48:54.533Z,12.60
2018-11-02T13:51:24.698Z,12.60
2018-11-02T13:54:01.055Z,12.60
2018-11-02T13:56:33.222Z,12.70
2018-11-02T13:59:03.178Z,12.60
2018-11-02T14:01:35.312Z,12.60
2018-11-02T14:04:07.331Z,12.70
2018-11-02T14:06:40.095Z,12.70
2018-11-02T14:09:10.197Z,12.80
2018-11-02T14:11:39.344Z,12.70
2018-11-02T14:14:12.091Z,12.70
2018-11-02T14:16:49.856Z,12.70
2018-11-02T14:19:20.575Z,12.70
2018-11-02T14:21:52.478Z,12.70
2018-11-02T14:24:29.587Z,12.70
2018-11-02T14:26:59.325Z,12.70
2018-11-02T14:29:32.139Z,12.50
2018-11-02T14:32:04.482Z,12.50
2018-11-02T14:34:34.019Z,12.40
2018-11-02T14:37:05.119Z,12.30
2018-11-02T14:39:34.527Z,12.30
2018-11-02T14:42:05.884Z,12.30
2018-11-02T14:44:35.624Z,12.30
2018-11-02T14:47:04.813Z,12.10
2018-11-02T14:49:34.741Z,12.00
2018-11-02T14:52:06.749Z,11.90
2018-11-02T14:54:38.018Z,11.80
2018-11-02T14:57:08.475Z,11.80
2018-11-02T14:59:37.854Z,11.70
2018-11-02T15:02:10.216Z,11.60
2018-11-02T15:04:41.462Z,11.50
2018-11-02T15:07:10.761Z,11.50
2018-11-02T15:09:42.772Z,11.40
2018-11-02T15:12:14.637Z,11.30
2018-11-02T15:14:45.699Z,11.20
2018-11-02T15:17:21.480Z,11.20
2018-11-02T15:19:56.353Z,11.00
2018-11-02T15:22:27.025Z,10.90
2018-11-02T15:24:59.176Z,10.80
2018-11-02T15:27:45.091Z,10.60
2018-11-02T15:30:15.987Z,10.50
2018-11-02T15:32:47.270Z,10.40
2018-11-02T15:35:18.237Z,10.30
2018-11-02T15:37:48.616Z,10.30
2018-11-02T15:40:18.887Z,10.20
2018-11-02T15:42:47.878Z,10.20
2018-11-02T15:45:18.019Z,10.10
2018-11-02T15:47:47.396Z,10.10
2018-11-02T15:50:16.493Z,10.00
2018-11-02T15:52:46.743Z,9.90
2018-11-02T15:55:17.758Z,9.80
2018-11-02T15:57:48.042Z,9.70
2018-11-02T16:00:19.035Z,9.60
2018-11-02T16:02:51.384Z,9.50
2018-11-02T16:05:21.596Z,9.50
2018-11-02T16:07:52.056Z,9.50
2018-11-02T16:10:22.154Z,9.40
2018-11-02T16:12:52.317Z,9.30
2018-11-02T16:15:23.965Z,9.20
2018-11-02T16:17:54.042Z,9.00
2018-11-02T16:20:24.945Z,9.00
2018-11-02T16:22:53.771Z,8.90
2018-11-02T16:25:48.613Z,8.80
2018-11-02T16:28:17.600Z,8.70
2018-11-02T16:30:47.419Z,8.60
2018-11-02T16:33:19.538Z,8.60
2018-11-02T16:35:55.719Z,8.50
2018-11-02T16:38:31.118Z,8.50
2018-11-02T16:41:01.246Z,8.30
2018-11-02T16:43:32.175Z,8.20
2018-11-02T16:46:02.206Z,8.20
2018-11-02T16:48:31.846Z,8.10
2018-11-02T16:51:01.991Z,8.10
2018-11-02T16:53:31.594Z,8.00
2018-11-02T16:56:00.810Z,7.90
2018-11-02T16:58:32.847Z,7.70
2018-11-02T17:01:03.674Z,7.60
2018-11-02T17:03:38.277Z,7.50
2018-11-02T17:06:09.505Z,7.40
2018-11-02T17:08:43.647Z,7.30
2018-11-02T17:11:17.667Z,7.20
2018-11-02T17:13:47.891Z,7.10
2018-11-02T17:16:17.751Z,7.10
2018-11-02T17:18:47.736Z,7.00
2018-11-02T17:21:19.804Z,6.90
2018-11-02T17:23:50.784Z,6.90
2018-11-02T17:26:19.909Z,6.80
2018-11-02T17:28:49.620Z,6.80
2018-11-02T17:31:19.578Z,6.70
2018-11-02T17:33:50.270Z,6.70
2018-11-02T17:36:19.495Z,6.70
2018-11-02T17:38:48.957Z,6.60
2018-11-02T17:41:19.755Z,6.60
2018-11-02T17:43:48.866Z,6.50
2018-11-02T17:46:18.196Z,6.40
2018-11-02T17:48:47.391Z,6.40
2018-11-02T17:51:16.604Z,6.40
2018-11-02T17:53:45.928Z,6.40
2018-11-02T17:56:15.098Z,6.40
2018-11-02T17:58:44.127Z,6.40
2018-11-02T18:01:13.227Z,6.40
2018-11-02T18:03:42.538Z,6.40
2018-11-02T18:06:11.905Z,6.30
2018-11-02T18:08:41.791Z,6.30
2018-11-02T18:11:13.807Z,6.20
2018-11-02T18:13:42.766Z,6.20
2018-11-02T18:16:11.804Z,6.20
2018-11-02T18:18:43.277Z,6.10
2018-11-02T18:21:13.321Z,6.20
2018-11-02T18:23:42.247Z,6.10
2018-11-02T18:26:11.399Z,6.10
2018-11-02T18:28:41.222Z,6.10
2018-11-02T18:31:10.606Z,6.10
2018-11-02T18:33:40.041Z,6.10
2018-11-02T18:36:09.318Z,6.10
2018-11-02T18:38:38.545Z,6.10
2018-11-02T18:41:08.418Z,6.10
2018-11-02T18:43:39.083Z,6.10
2018-11-02T18:46:08.572Z,6.10
2018-11-02T18:48:38.127Z,6.00
2018-11-02T18:51:08.561Z,5.90
2018-11-02T18:53:37.881Z,5.90
2018-11-02T18:56:06.794Z,5.80
2018-11-02T18:58:35.680Z,5.80
2018-11-02T19:01:04.544Z,5.70
2018-11-02T19:03:33.384Z,5.70
2018-11-02T19:06:02.264Z,5.70
2018-11-02T19:08:31.023Z,5.60
2018-11-02T19:10:59.766Z,5.60
2018-11-02T19:13:28.750Z,5.50
2018-11-02T19:15:57.325Z,5.50
2018-11-02T19:18:26.045Z,5.40
2018-11-02T19:20:54.859Z,5.40
2018-11-02T19:23:23.649Z,5.40
2018-11-02T19:25:53.389Z,5.40
2018-11-02T19:28:22.182Z,5.40
2018-11-02T19:30:50.962Z,5.40
2018-11-02T19:33:19.895Z,5.30
2018-11-02T19:35:48.725Z,5.30
2018-11-02T19:38:19.221Z,5.20
2018-11-02T19:40:48.162Z,5.20
2018-11-02T19:43:18.040Z,5.20
2018-11-02T19:45:47.372Z,5.20
2018-11-02T19:48:16.162Z,5.20
2018-11-02T19:50:45.117Z,5.20
2018-11-02T19:53:13.889Z,5.20
2018-11-02T19:55:42.744Z,5.20
2018-11-02T19:58:14.848Z,5.20
2018-11-02T20:00:43.847Z,5.20
2018-11-02T20:03:12.727Z,5.30
2018-11-02T20:05:41.621Z,5.30
2018-11-02T20:08:10.484Z,5.40
2018-11-02T20:10:39.387Z,5.40
2018-11-02T20:13:08.217Z,5.40
2018-11-02T20:15:37.076Z,5.50
2018-11-02T20:18:05.991Z,5.50
2018-11-02T20:20:35.040Z,5.50
2018-11-02T20:23:03.832Z,5.50
2018-11-02T20:25:32.715Z,5.50
2018-11-02T20:28:01.608Z,5.50
2018-11-02T20:30:30.514Z,5.50
2018-11-02T20:32:59.337Z,5.50
2018-11-02T20:35:28.091Z,5.50
2018-11-02T20:37:56.959Z,5.50
2018-11-02T20:40:25.888Z,5.60
2018-11-02T20:42:54.599Z,5.60
2018-11-02T20:45:23.404Z,5.60
2018-11-02T20:47:53.441Z,5.60
2018-11-02T20:50:22.258Z,5.60
2018-11-02T20:52:51.613Z,5.60
2018-11-02T20:55:20.377Z,5.60
2018-11-02T20:57:49.176Z,5.60
2018-11-02T21:00:19.489Z,5.60
2018-11-02T21:02:48.497Z,5.60
2018-11-02T21:05:19.423Z,5.60
2018-11-02T21:07:49.865Z,5.70
2018-11-02T21:10:20.279Z,5.60
2018-11-02T21:12:50.106Z,5.60
2018-11-02T21:15:22.027Z,5.60
2018-11-02T21:17:51.959Z,5.60
2018-11-02T21:20:23.188Z,5.60
2018-11-02T21:22:52.638Z,5.60
2018-11-02T21:25:23.781Z,5.60
2018-11-02T21:27:52.758Z,5.60
2018-11-02T21:30:23.701Z,5.60
2018-11-02T21:32:54.639Z,5.50
2018-11-02T21:35:24.071Z,5.50
2018-11-02T21:38:03.859Z,5.50
2018-11-02T21:40:36.101Z,5.50
2018-11-02T21:43:06.685Z,5.40
2018-11-02T21:45:42.242Z,5.50
2018-11-02T21:48:16.713Z,5.40
2018-11-02T21:50:52.225Z,5.40
2018-11-02T21:53:21.039Z,5.40
2018-11-02T21:55:50.619Z,5.40
2018-11-02T21:58:19.671Z,5.40
2018-11-02T22:00:48.438Z,5.40
2018-11-02T22:03:17.309Z,5.30
2018-11-02T22:05:47.231Z,5.30
2018-11-02T22:08:17.194Z,5.30
2018-11-02T22:10:46.685Z,5.30
2018-11-02T22:13:16.002Z,5.30
2018-11-02T22:15:45.656Z,5.20
2018-11-02T22:18:15.712Z,5.20
2018-11-02T22:20:45.866Z,5.30
2018-11-02T22:23:15.341Z,5.20
2018-11-02T22:25:45.638Z,5.20
2018-11-02T22:28:15.979Z,5.30
2018-11-02T22:30:45.232Z,5.30
2018-11-02T22:33:14.121Z,5.40
2018-11-02T22:35:43.158Z,5.40
2018-11-02T22:38:11.987Z,5.50
2018-11-02T22:40:40.815Z,5.50
2018-11-02T22:43:09.638Z,5.60
2018-11-02T22:45:38.662Z,5.90
2018-11-02T22:48:13.984Z,6.00
2018-11-02T22:50:42.922Z,6.10
2018-11-02T22:53:11.736Z,6.10
2018-11-02T22:55:40.478Z,6.10
2018-11-02T22:58:09.396Z,6.10
2018-11-02T23:00:43.589Z,6.00
2018-11-02T23:03:12.503Z,6.00
2018-11-02T23:05:41.397Z,6.00
2018-11-02T23:08:10.096Z,5.90
2018-11-02T23:10:38.937Z,5.90
2018-11-02T23:13:07.727Z,6.00
2018-11-02T23:15:36.552Z,6.00
2018-11-02T23:18:05.406Z,6.10
2018-11-02T23:20:34.369Z,6.20
2018-11-02T23:23:04.992Z,6.10
2018-11-02T23:25:34.097Z,6.10
2018-11-02T23:28:02.862Z,6.10
2018-11-02T23:30:31.661Z,6.10
2018-11-02T23:33:00.823Z,6.00
2018-11-02T23:35:31.458Z,6.00
2018-11-02T23:38:00.259Z,6.00
2018-11-02T23:40:29.102Z,6.00
2018-11-02T23:42:58.044Z,6.10
2018-11-02T23:45:27.288Z,6.10
2018-11-02T23:47:56.841Z,6.20
2018-11-02T23:50:25.592Z,6.30
2018-11-02T23:52:54.378Z,6.40
2018-11-02T23:55:23.250Z,6.50
2018-11-02T23:57:52.190Z,6.40
